sensor_id;sensor_type;location;lat;lon;timestamp;pressure;altitude;pressure_sealevel;temperature;humidity
65157;BME280;52745;49.794;18.258;2022-08-26T00:02:19;98713.31;;;19.49;100.00
65157;BME280;52745;49.794;18.258;2022-08-26T00:04:45;98712.03;;;19.46;100.00
65157;BME280;52745;49.794;18.258;2022-08-26T00:07:12;98711.81;;;19.42;100.00
65157;BME280;52745;49.794;18.258;2022-08-26T00:09:39;98707.28;;;19.38;100.00
65157;BME280;52745;49.794;18.258;2022-08-26T00:12:06;98707.88;;;19.35;100.00
65157;BME280;52745;49.794;18.258;2022-08-26T00:14:33;98708.47;;;19.32;100.00
65157;BME280;52745;49.794;18.258;2022-08-26T00:16:59;98705.56;;;19.28;100.00
65157;BME280;52745;49.794;18.258;2022-08-26T00:19:26;98705.94;;;19.21;100.00
65157;BME280;52745;49.794;18.258;2022-08-26T00:21:53;98700.84;;;19.20;100.00
65157;BME280;52745;49.794;18.258;2022-08-26T00:24:20;98693.03;;;19.18;100.00
65157;BME280;52745;49.794;18.258;2022-08-26T00:26:48;98703.34;;;19.16;100.00
65157;BME280;52745;49.794;18.258;2022-08-26T00:29:15;98700.13;;;19.14;100.00
65157;BME280;52745;49.794;18.258;2022-08-26T00:31:42;98707.72;;;19.12;100.00
65157;BME280;52745;49.794;18.258;2022-08-26T00:34:09;98702.94;;;19.09;100.00
65157;BME280;52745;49.794;18.258;2022-08-26T00:36:36;98702.72;;;19.06;100.00
65157;BME280;52745;49.794;18.258;2022-08-26T00:39:04;98705.22;;;19.02;100.00
65157;BME280;52745;49.794;18.258;2022-08-26T00:41:38;98707.94;;;19.02;100.00
65157;BME280;52745;49.794;18.258;2022-08-26T00:44:05;98700.09;;;19.00;100.00
65157;BME280;52745;49.794;18.258;2022-08-26T00:46:39;98704.09;;;19.03;100.00
65157;BME280;52745;49.794;18.258;2022-08-26T00:49:11;98704.09;;;19.03;100.00
65157;BME280;52745;49.794;18.258;2022-08-26T00:51:44;98702.50;;;19.02;100.00
65157;BME280;52745;49.794;18.258;2022-08-26T00:54:14;98703.59;;;19.01;100.00
65157;BME280;52745;49.794;18.258;2022-08-26T00:56:57;98704.09;;;19.03;100.00
65157;BME280;52745;49.794;18.258;2022-08-26T00:59:24;98706.00;;;19.02;100.00
65157;BME280;52745;49.794;18.258;2022-08-26T01:01:51;98699.81;;;19.02;100.00
65157;BME280;52745;49.794;18.258;2022-08-26T01:04:20;98708.44;;;19.04;100.00
65157;BME280;52745;49.794;18.258;2022-08-26T01:06:50;98710.41;;;18.98;100.00
65157;BME280;52745;49.794;18.258;2022-08-26T01:09:18;98706.97;;;18.93;100.00
65157;BME280;52745;49.794;18.258;2022-08-26T01:11:46;98711.31;;;18.94;100.00
65157;BME280;52745;49.794;18.258;2022-08-26T01:14:14;98705.88;;;18.94;100.00
65157;BME280;52745;49.794;18.258;2022-08-26T01:16:42;98706.69;;;18.94;100.00
65157;BME280;52745;49.794;18.258;2022-08-26T01:19:16;98702.06;;;18.95;100.00
65157;BME280;52745;49.794;18.258;2022-08-26T01:22:00;98699.38;;;18.95;100.00
65157;BME280;52745;49.794;18.258;2022-08-26T01:24:29;98699.97;;;18.92;100.00
65157;BME280;52745;49.794;18.258;2022-08-26T01:27:07;98704.25;;;18.93;100.00
65157;BME280;52745;49.794;18.258;2022-08-26T01:29:35;98702.38;;;18.93;100.00
65157;BME280;52745;49.794;18.258;2022-08-26T01:32:06;98703.78;;;18.91;100.00
65157;BME280;52745;49.794;18.258;2022-08-26T01:34:36;98704.34;;;18.88;100.00
65157;BME280;52745;49.794;18.258;2022-08-26T01:37:07;98704.16;;;18.84;100.00
65157;BME280;52745;49.794;18.258;2022-08-26T01:39:36;98690.63;;;18.84;100.00
65157;BME280;52745;49.794;18.258;2022-08-26T01:42:05;98712.84;;;18.81;100.00
65157;BME280;52745;49.794;18.258;2022-08-26T01:44:40;98701.84;;;18.77;100.00
65157;BME280;52745;49.794;18.258;2022-08-26T01:47:11;98699.97;;;18.73;100.00
65157;BME280;52745;49.794;18.258;2022-08-26T01:49:39;98700.28;;;18.71;100.00
65157;BME280;52745;49.794;18.258;2022-08-26T01:52:07;98695.94;;;18.70;100.00
65157;BME280;52745;49.794;18.258;2022-08-26T01:54:35;98690.03;;;18.68;100.00
65157;BME280;52745;49.794;18.258;2022-08-26T01:57:02;98690.91;;;18.64;100.00
65157;BME280;52745;49.794;18.258;2022-08-26T01:59:29;98682.81;;;18.64;100.00
65157;BME280;52745;49.794;18.258;2022-08-26T02:01:56;98684.72;;;18.63;100.00
65157;BME280;52745;49.794;18.258;2022-08-26T02:04:34;98686.91;;;18.61;100.00
65157;BME280;52745;49.794;18.258;2022-08-26T02:07:05;98678.28;;;18.59;100.00
65157;BME280;52745;49.794;18.258;2022-08-26T02:09:36;98678.28;;;18.59;100.00
65157;BME280;52745;49.794;18.258;2022-08-26T02:12:04;98683.69;;;18.59;100.00
65157;BME280;52745;49.794;18.258;2022-08-26T02:14:37;98683.19;;;18.57;100.00
65157;BME280;52745;49.794;18.258;2022-08-26T02:17:09;98688.38;;;18.53;100.00
65157;BME280;52745;49.794;18.258;2022-08-26T02:19:39;98682.47;;;18.51;100.00
65157;BME280;52745;49.794;18.258;2022-08-26T02:22:10;98676.22;;;18.51;100.00
65157;BME280;52745;49.794;18.258;2022-08-26T02:24:49;98681.63;;;18.51;100.00
65157;BME280;52745;49.794;18.258;2022-08-26T02:27:17;98681.97;;;18.49;100.00
65157;BME280;52745;49.794;18.258;2022-08-26T02:29:48;98682.25;;;18.48;100.00
65157;BME280;52745;49.794;18.258;2022-08-26T02:32:17;98684.50;;;18.40;100.00
65157;BME280;52745;49.794;18.258;2022-08-26T02:34:45;98687.22;;;18.40;100.00
65157;BME280;52745;49.794;18.258;2022-08-26T02:37:12;98688.28;;;18.39;100.00
65157;BME280;52745;49.794;18.258;2022-08-26T02:39:40;98687.78;;;18.37;100.00
65157;BME280;52745;49.794;18.258;2022-08-26T02:42:08;98683.78;;;18.35;100.00
65157;BME280;52745;49.794;18.258;2022-08-26T02:44:35;98686.47;;;18.35;100.00
65157;BME280;52745;49.794;18.258;2022-08-26T02:47:02;98692.41;;;18.37;100.00
65157;BME280;52745;49.794;18.258;2022-08-26T02:49:29;98689.13;;;18.40;100.00
65157;BME280;52745;49.794;18.258;2022-08-26T02:51:56;98684.50;;;18.40;100.00
65157;BME280;52745;49.794;18.258;2022-08-26T02:54:22;98696.41;;;18.39;100.00
65157;BME280;52745;49.794;18.258;2022-08-26T02:56:49;98693.19;;;18.37;100.00
65157;BME280;52745;49.794;18.258;2022-08-26T02:59:17;98685.09;;;18.37;100.00
65157;BME280;52745;49.794;18.258;2022-08-26T03:01:43;98686.47;;;18.35;100.00
65157;BME280;52745;49.794;18.258;2022-08-26T03:04:14;98685.16;;;18.32;100.00
65157;BME280;52745;49.794;18.258;2022-08-26T03:06:41;98687.88;;;18.32;100.00
65157;BME280;52745;49.794;18.258;2022-08-26T03:09:08;98678.69;;;18.33;100.00
65157;BME280;52745;49.794;18.258;2022-08-26T03:11:35;98685.16;;;18.32;100.00
65157;BME280;52745;49.794;18.258;2022-08-26T03:14:02;98681.94;;;18.30;100.00
65157;BME280;52745;49.794;18.258;2022-08-26T03:16:34;98678.16;;;18.31;100.00
65157;BME280;52745;49.794;18.258;2022-08-26T03:19:02;98678.97;;;18.32;100.00
65157;BME280;52745;49.794;18.258;2022-08-26T03:21:30;98676.53;;;18.30;100.00
65157;BME280;52745;49.794;18.258;2022-08-26T03:23:57;98666.34;;;18.27;100.00
65157;BME280;52745;49.794;18.258;2022-08-26T03:26:23;98671.75;;;18.27;100.00
65157;BME280;52745;49.794;18.258;2022-08-26T03:28:50;98677.44;;;18.26;100.00
65157;BME280;52745;49.794;18.258;2022-08-26T03:31:35;98676.13;;;18.23;100.00
65157;BME280;52745;49.794;18.258;2022-08-26T03:34:02;98679.69;;;18.18;100.00
65157;BME280;52745;49.794;18.258;2022-08-26T03:36:29;98674.06;;;18.15;100.00
65157;BME280;52745;49.794;18.258;2022-08-26T03:38:56;98676.75;;;18.15;100.00
65157;BME280;52745;49.794;18.258;2022-08-26T03:41:22;98673.53;;;18.13;100.00
65157;BME280;52745;49.794;18.258;2022-08-26T03:43:49;98676.84;;;18.10;100.00
65157;BME280;52745;49.794;18.258;2022-08-26T03:46:17;98680.94;;;18.07;100.00
65157;BME280;52745;49.794;18.258;2022-08-26T03:48:43;98668.00;;;18.04;100.00
65157;BME280;52745;49.794;18.258;2022-08-26T03:51:17;98677.19;;;18.03;100.00
65157;BME280;52745;49.794;18.258;2022-08-26T03:53:44;98673.38;;;18.04;100.00
65157;BME280;52745;49.794;18.258;2022-08-26T03:56:12;98676.09;;;18.04;100.00
65157;BME280;52745;49.794;18.258;2022-08-26T03:58:40;98669.09;;;18.03;100.00
65157;BME280;52745;49.794;18.258;2022-08-26T04:01:06;98665.59;;;18.03;100.00
65157;BME280;52745;49.794;18.258;2022-08-26T04:03:32;98673.19;;;18.01;100.00
65157;BME280;52745;49.794;18.258;2022-08-26T04:06:17;98672.06;;;18.02;100.00
65157;BME280;52745;49.794;18.258;2022-08-26T04:08:44;98673.38;;;18.04;100.00
65157;BME280;52745;49.794;18.258;2022-08-26T04:11:19;98673.63;;;18.08;100.00
65157;BME280;52745;49.794;18.258;2022-08-26T04:13:47;98670.84;;;18.13;100.00
65157;BME280;52745;49.794;18.258;2022-08-26T04:16:15;98675.09;;;18.19;100.00
65157;BME280;52745;49.794;18.258;2022-08-26T04:18:42;98675.31;;;18.23;100.00
65157;BME280;52745;49.794;18.258;2022-08-26T04:21:10;98674.94;;;18.29;100.00
65157;BME280;52745;49.794;18.258;2022-08-26T04:23:37;98677.28;;;18.36;100.00
65157;BME280;52745;49.794;18.258;2022-08-26T04:26:04;98681.81;;;18.40;100.00
65157;BME280;52745;49.794;18.258;2022-08-26T04:28:31;98682.25;;;18.48;100.00
65157;BME280;52745;49.794;18.258;2022-08-26T04:30:57;98678.09;;;18.55;100.00
65157;BME280;52745;49.794;18.258;2022-08-26T04:33:24;98675.50;;;18.64;100.00
65157;BME280;52745;49.794;18.258;2022-08-26T04:36:00;98671.09;;;18.68;100.00
65157;BME280;52745;49.794;18.258;2022-08-26T04:38:28;98672.91;;;18.73;100.00
65157;BME280;52745;49.794;18.258;2022-08-26T04:40:54;98672.91;;;18.73;100.00
65157;BME280;52745;49.794;18.258;2022-08-26T04:43:22;98670.44;;;18.76;100.00
65157;BME280;52745;49.794;18.258;2022-08-26T04:45:48;98668.78;;;18.80;100.00
65157;BME280;52745;49.794;18.258;2022-08-26T04:48:15;98673.44;;;18.94;100.00
65157;BME280;52745;49.794;18.258;2022-08-26T04:50:41;98667.34;;;19.02;100.00
65157;BME280;52745;49.794;18.258;2022-08-26T04:53:08;98671.47;;;19.13;100.00
65157;BME280;52745;49.794;18.258;2022-08-26T04:55:35;98659.81;;;19.13;100.00
65157;BME280;52745;49.794;18.258;2022-08-26T04:58:01;98657.63;;;19.15;100.00
65157;BME280;52745;49.794;18.258;2022-08-26T05:00:27;98652.81;;;19.12;100.00
65157;BME280;52745;49.794;18.258;2022-08-26T05:02:54;98660.66;;;19.13;100.00
65157;BME280;52745;49.794;18.258;2022-08-26T05:05:21;98665.06;;;19.23;100.00
65157;BME280;52745;49.794;18.258;2022-08-26T05:07:47;98657.06;;;19.32;100.00
65157;BME280;52745;49.794;18.258;2022-08-26T05:10:14;98654.84;;;19.34;100.00
65157;BME280;52745;49.794;18.258;2022-08-26T05:12:40;98664.50;;;19.40;100.00
65157;BME280;52745;49.794;18.258;2022-08-26T05:15:07;98663.47;;;19.36;100.00
65157;BME280;52745;49.794;18.258;2022-08-26T05:17:33;98666.19;;;19.36;100.00
65157;BME280;52745;49.794;18.258;2022-08-26T05:20:00;98669.69;;;19.50;100.00
65157;BME280;52745;49.794;18.258;2022-08-26T05:22:26;98667.41;;;19.57;100.00
65157;BME280;52745;49.794;18.258;2022-08-26T05:24:53;98669.34;;;19.71;100.00
65157;BME280;52745;49.794;18.258;2022-08-26T05:27:19;98668.88;;;20.05;100.00
65157;BME280;52745;49.794;18.258;2022-08-26T05:29:46;98676.66;;;20.20;100.00
65157;BME280;52745;49.794;18.258;2022-08-26T05:32:13;98681.38;;;20.29;100.00
65157;BME280;52745;49.794;18.258;2022-08-26T05:34:40;98678.13;;;20.40;100.00
65157;BME280;52745;49.794;18.258;2022-08-26T05:37:06;98688.88;;;20.32;100.00
65157;BME280;52745;49.794;18.258;2022-08-26T05:39:33;98684.59;;;20.17;100.00
65157;BME280;52745;49.794;18.258;2022-08-26T05:41:59;98681.31;;;20.42;100.00
65157;BME280;52745;49.794;18.258;2022-08-26T05:44:26;98671.81;;;20.67;99.96
65157;BME280;52745;49.794;18.258;2022-08-26T05:46:52;98674.09;;;20.97;97.73
65157;BME280;52745;49.794;18.258;2022-08-26T05:49:19;98681.00;;;20.80;98.44
65157;BME280;52745;49.794;18.258;2022-08-26T05:51:45;98678.78;;;20.82;98.04
65157;BME280;52745;49.794;18.258;2022-08-26T05:54:13;98678.44;;;21.06;96.54
65157;BME280;52745;49.794;18.258;2022-08-26T05:56:39;98680.84;;;20.85;97.72
65157;BME280;52745;49.794;18.258;2022-08-26T05:59:12;98676.69;;;20.79;98.24
65157;BME280;52745;49.794;18.258;2022-08-26T06:01:39;98677.72;;;20.70;98.99
65157;BME280;52745;49.794;18.258;2022-08-26T06:04:06;98677.91;;;20.73;98.34
65157;BME280;52745;49.794;18.258;2022-08-26T06:06:35;98673.53;;;20.86;97.66
65157;BME280;52745;49.794;18.258;2022-08-26T06:09:04;98670.63;;;20.82;98.57
65157;BME280;52745;49.794;18.258;2022-08-26T06:11:32;98671.81;;;20.90;97.31
65157;BME280;52745;49.794;18.258;2022-08-26T06:14:02;98663.50;;;20.86;97.17
65157;BME280;52745;49.794;18.258;2022-08-26T06:16:29;98671.69;;;21.26;95.00
65157;BME280;52745;49.794;18.258;2022-08-26T06:18:55;98668.53;;;21.33;94.71
65157;BME280;52745;49.794;18.258;2022-08-26T06:21:28;98675.97;;;21.27;95.68
65157;BME280;52745;49.794;18.258;2022-08-26T06:24:00;98668.75;;;21.14;95.15
65157;BME280;52745;49.794;18.258;2022-08-26T06:26:57;98670.34;;;21.15;95.59
65157;BME280;52745;49.794;18.258;2022-08-26T06:29:25;98668.00;;;21.22;95.92
65157;BME280;52745;49.794;18.258;2022-08-26T06:31:53;98674.88;;;21.28;96.09
65157;BME280;52745;49.794;18.258;2022-08-26T06:34:19;98673.81;;;21.38;95.88
65157;BME280;52745;49.794;18.258;2022-08-26T06:36:46;98672.44;;;21.49;94.58
65157;BME280;52745;49.794;18.258;2022-08-26T06:39:16;98670.72;;;21.62;93.08
65157;BME280;52745;49.794;18.258;2022-08-26T06:41:43;98682.53;;;21.58;92.76
65157;BME280;52745;49.794;18.258;2022-08-26T06:44:17;98674.72;;;21.65;91.93
65157;BME280;52745;49.794;18.258;2022-08-26T06:46:43;98670.72;;;21.62;92.45
65157;BME280;52745;49.794;18.258;2022-08-26T06:49:10;98675.13;;;21.81;91.57
65157;BME280;52745;49.794;18.258;2022-08-26T06:51:39;98671.72;;;21.66;92.25
65157;BME280;52745;49.794;18.258;2022-08-26T06:54:08;98668.84;;;21.72;92.81
65157;BME280;52745;49.794;18.258;2022-08-26T06:56:39;98672.09;;;21.91;91.17
65157;BME280;52745;49.794;18.258;2022-08-26T06:59:07;98666.53;;;22.14;89.57
65157;BME280;52745;49.794;18.258;2022-08-26T07:01:37;98671.78;;;22.01;90.80
65157;BME280;52745;49.794;18.258;2022-08-26T07:04:05;98665.72;;;22.04;90.73
65157;BME280;52745;49.794;18.258;2022-08-26T07:06:36;98670.84;;;22.15;89.82
65157;BME280;52745;49.794;18.258;2022-08-26T07:09:05;98670.38;;;22.21;90.99
65157;BME280;52745;49.794;18.258;2022-08-26T07:11:32;98675.69;;;22.35;89.78
65157;BME280;52745;49.794;18.258;2022-08-26T07:13:59;98677.63;;;22.61;87.11
65157;BME280;52745;49.794;18.258;2022-08-26T07:16:27;98676.34;;;22.49;88.01
65157;BME280;52745;49.794;18.258;2022-08-26T07:18:54;98670.25;;;22.52;87.78
65157;BME280;52745;49.794;18.258;2022-08-26T07:21:21;98668.97;;;22.59;87.48
65157;BME280;52745;49.794;18.258;2022-08-26T07:23:48;98665.59;;;22.79;87.34
65157;BME280;52745;49.794;18.258;2022-08-26T07:26:22;98664.81;;;22.70;88.13
65157;BME280;52745;49.794;18.258;2022-08-26T07:28:50;98656.75;;;22.82;87.57
65157;BME280;52745;49.794;18.258;2022-08-26T07:31:19;98656.25;;;22.98;87.89
65157;BME280;52745;49.794;18.258;2022-08-26T07:33:46;98660.41;;;23.12;88.52
65157;BME280;52745;49.794;18.258;2022-08-26T07:36:15;98656.53;;;23.22;86.08
65157;BME280;52745;49.794;18.258;2022-08-26T07:38:43;98660.63;;;23.37;86.21
65157;BME280;52745;49.794;18.258;2022-08-26T07:41:11;98651.59;;;23.54;85.40
65157;BME280;52745;49.794;18.258;2022-08-26T07:43:42;98662.38;;;23.42;84.00
65157;BME280;52745;49.794;18.258;2022-08-26T07:46:09;98663.56;;;23.62;82.89
65157;BME280;52745;49.794;18.258;2022-08-26T07:48:36;98666.56;;;24.07;81.60
65157;BME280;52745;49.794;18.258;2022-08-26T07:51:03;98662.22;;;25.03;77.90
65157;BME280;52745;49.794;18.258;2022-08-26T07:53:29;98662.84;;;26.07;72.47
65157;BME280;52745;49.794;18.258;2022-08-26T07:55:56;98668.03;;;27.37;66.89
65157;BME280;52745;49.794;18.258;2022-08-26T07:58:24;98673.28;;;27.93;62.92
65157;BME280;52745;49.794;18.258;2022-08-26T08:00:51;98667.84;;;28.48;61.30
65157;BME280;52745;49.794;18.258;2022-08-26T08:03:18;98663.56;;;29.59;58.09
65157;BME280;52745;49.794;18.258;2022-08-26T08:05:46;98663.88;;;30.34;55.20
65157;BME280;52745;49.794;18.258;2022-08-26T08:08:12;98656.47;;;30.71;54.14
65157;BME280;52745;49.794;18.258;2022-08-26T08:10:39;98657.66;;;30.74;54.36
65157;BME280;52745;49.794;18.258;2022-08-26T08:13:06;98658.91;;;31.66;50.86
65157;BME280;52745;49.794;18.258;2022-08-26T08:15:34;98652.16;;;32.15;49.25
65157;BME280;52745;49.794;18.258;2022-08-26T08:18:03;98650.56;;;32.14;49.06
65157;BME280;52745;49.794;18.258;2022-08-26T08:20:30;98649.69;;;32.97;48.63
65157;BME280;52745;49.794;18.258;2022-08-26T08:22:56;98661.19;;;33.71;45.51
65157;BME280;52745;49.794;18.258;2022-08-26T08:25:23;98648.06;;;34.08;44.55
65157;BME280;52745;49.794;18.258;2022-08-26T08:27:50;98646.75;;;34.52;44.51
65157;BME280;52745;49.794;18.258;2022-08-26T08:30:19;98647.91;;;34.54;43.15
65157;BME280;52745;49.794;18.258;2022-08-26T08:32:47;98645.63;;;34.35;43.78
65157;BME280;52745;49.794;18.258;2022-08-26T08:35:16;98640.69;;;34.78;42.56
65157;BME280;52745;49.794;18.258;2022-08-26T08:37:43;98640.41;;;35.21;42.54
65157;BME280;52745;49.794;18.258;2022-08-26T08:40:13;98643.63;;;35.65;41.15
65157;BME280;52745;49.794;18.258;2022-08-26T08:50:52;98638.44;;;35.67;41.03
65157;BME280;52745;49.794;18.258;2022-08-26T09:01:40;98628.78;;;36.47;39.66
65157;BME280;52745;49.794;18.258;2022-08-26T09:06:44;98626.66;;;36.28;36.53
65157;BME280;52745;49.794;18.258;2022-08-26T09:09:22;98625.59;;;36.80;37.42
65157;BME280;52745;49.794;18.258;2022-08-26T09:11:49;98623.84;;;36.90;36.60
65157;BME280;52745;49.794;18.258;2022-08-26T09:14:16;98618.50;;;36.75;36.84
65157;BME280;52745;49.794;18.258;2022-08-26T09:19:42;98619.09;;;36.59;36.03
65157;BME280;52745;49.794;18.258;2022-08-26T09:22:30;98616.41;;;35.87;37.02
65157;BME280;52745;49.794;18.258;2022-08-26T09:24:57;98610.75;;;36.63;37.35
65157;BME280;52745;49.794;18.258;2022-08-26T09:27:46;98619.34;;;37.26;36.51
65157;BME280;52745;49.794;18.258;2022-08-26T09:30:31;98622.16;;;37.23;35.52
65157;BME280;52745;49.794;18.258;2022-08-26T09:33:05;98619.88;;;37.85;33.20
65157;BME280;52745;49.794;18.258;2022-08-26T09:35:38;98617.66;;;38.56;32.16
65157;BME280;52745;49.794;18.258;2022-08-26T09:43:25;98615.59;;;38.60;32.46
65157;BME280;52745;49.794;18.258;2022-08-26T09:46:09;98615.00;;;38.69;33.05
65157;BME280;52745;49.794;18.258;2022-08-26T09:48:38;98607.81;;;38.68;31.33
65157;BME280;52745;49.794;18.258;2022-08-26T09:51:25;98606.81;;;38.95;32.52
65157;BME280;52745;49.794;18.258;2022-08-26T09:53:54;98608.63;;;38.85;29.99
65157;BME280;52745;49.794;18.258;2022-08-26T09:56:32;98604.44;;;38.40;32.04
65157;BME280;52745;49.794;18.258;2022-08-26T09:58:59;98604.09;;;38.91;30.29
65157;BME280;52745;49.794;18.258;2022-08-26T10:01:38;98600.38;;;39.14;32.06
65157;BME280;52745;49.794;18.258;2022-08-26T10:04:17;98592.38;;;39.00;31.69
65157;BME280;52745;49.794;18.258;2022-08-26T10:07:00;98591.59;;;38.99;31.95
65157;BME280;52745;49.794;18.258;2022-08-26T10:09:31;98591.44;;;39.52;28.89
65157;BME280;52745;49.794;18.258;2022-08-26T10:12:03;98584.50;;;39.44;28.82
65157;BME280;52745;49.794;18.258;2022-08-26T10:14:35;98588.75;;;39.32;28.78
65157;BME280;52745;49.794;18.258;2022-08-26T10:17:23;98585.09;;;38.86;29.33
65157;BME280;52745;49.794;18.258;2022-08-26T10:20:00;98579.81;;;37.35;30.62
65157;BME280;52745;49.794;18.258;2022-08-26T10:25:07;98566.09;;;38.81;31.87
65157;BME280;52745;49.794;18.258;2022-08-26T10:27:42;98571.94;;;39.03;29.48
65157;BME280;52745;49.794;18.258;2022-08-26T10:30:17;98572.44;;;39.47;31.03
65157;BME280;52745;49.794;18.258;2022-08-26T10:32:50;98571.66;;;37.88;30.21
65157;BME280;52745;49.794;18.258;2022-08-26T10:35:19;98572.97;;;38.76;28.62
65157;BME280;52745;49.794;18.258;2022-08-26T10:37:55;98569.44;;;39.08;28.10
65157;BME280;52745;49.794;18.258;2022-08-26T10:40:34;98560.44;;;37.92;28.80
65157;BME280;52745;49.794;18.258;2022-08-26T10:45:37;98562.81;;;38.13;28.92
65157;BME280;52745;49.794;18.258;2022-08-26T10:48:31;98555.34;;;38.63;28.72
65157;BME280;52745;49.794;18.258;2022-08-26T10:50:55;98559.72;;;37.87;29.54
65157;BME280;52745;49.794;18.258;2022-08-26T11:01:24;98552.75;;;39.05;27.02
65157;BME280;52745;49.794;18.258;2022-08-26T11:15:09;98528.00;;;39.07;27.18
65157;BME280;52745;49.794;18.258;2022-08-26T11:22:50;98515.16;;;38.93;26.04
65157;BME280;52745;49.794;18.258;2022-08-26T11:25:21;98516.31;;;38.79;24.58
65157;BME280;52745;49.794;18.258;2022-08-26T11:35:12;98507.00;;;38.17;26.33
65157;BME280;52745;49.794;18.258;2022-08-26T11:38:00;98505.97;;;38.11;26.68
65157;BME280;52745;49.794;18.258;2022-08-26T11:40:33;98506.06;;;37.43;27.83
65157;BME280;52745;49.794;18.258;2022-08-26T11:43:12;98502.56;;;36.18;28.42
65157;BME280;52745;49.794;18.258;2022-08-26T11:45:57;98501.56;;;35.70;31.79
65157;BME280;52745;49.794;18.258;2022-08-26T11:53:40;98509.47;;;34.33;31.09
65157;BME280;52745;49.794;18.258;2022-08-26T11:56:26;98500.44;;;34.18;31.80
65157;BME280;52745;49.794;18.258;2022-08-26T11:58:56;98505.47;;;34.37;31.26
65157;BME280;52745;49.794;18.258;2022-08-26T12:01:26;98512.25;;;34.29;31.37
65157;BME280;52745;49.794;18.258;2022-08-26T12:03:54;98503.66;;;34.13;31.01
65157;BME280;52745;49.794;18.258;2022-08-26T12:06:28;98504.16;;;33.86;33.50
65157;BME280;52745;49.794;18.258;2022-08-26T12:08:58;98503.06;;;33.58;31.65
65157;BME280;52745;49.794;18.258;2022-08-26T12:11:31;98496.00;;;33.29;31.81
65157;BME280;52745;49.794;18.258;2022-08-26T12:14:01;98498.72;;;33.43;32.12
65157;BME280;52745;49.794;18.258;2022-08-26T12:16:36;98495.97;;;33.47;32.21
65157;BME280;52745;49.794;18.258;2022-08-26T12:19:27;98499.94;;;33.42;32.72
65157;BME280;52745;49.794;18.258;2022-08-26T12:22:00;98492.84;;;33.34;34.25
65157;BME280;52745;49.794;18.258;2022-08-26T12:24:28;98493.66;;;32.88;33.57
65157;BME280;52745;49.794;18.258;2022-08-26T12:29:36;98489.72;;;32.56;35.68
65157;BME280;52745;49.794;18.258;2022-08-26T12:32:12;98487.31;;;32.44;33.89
65157;BME280;52745;49.794;18.258;2022-08-26T12:34:43;98488.47;;;32.43;35.17
65157;BME280;52745;49.794;18.258;2022-08-26T12:37:12;98481.81;;;32.69;34.74
65157;BME280;52745;49.794;18.258;2022-08-26T12:39:41;98482.59;;;32.88;34.11
65157;BME280;52745;49.794;18.258;2022-08-26T12:44:57;98473.94;;;32.71;35.72
65157;BME280;52745;49.794;18.258;2022-08-26T12:47:30;98471.94;;;32.83;32.83
65157;BME280;52745;49.794;18.258;2022-08-26T12:50:01;98463.69;;;32.57;34.16
65157;BME280;52745;49.794;18.258;2022-08-26T12:52:31;98461.72;;;32.72;36.54
65157;BME280;52745;49.794;18.258;2022-08-26T12:55:03;98466.03;;;32.77;37.63
65157;BME280;52745;49.794;18.258;2022-08-26T12:57:34;98458.13;;;32.54;33.30
65157;BME280;52745;49.794;18.258;2022-08-26T13:00:24;98457.72;;;32.45;32.67
65157;BME280;52745;49.794;18.258;2022-08-26T13:02:55;98455.72;;;32.20;36.34
65157;BME280;52745;49.794;18.258;2022-08-26T13:05:28;98451.34;;;31.98;34.84
65157;BME280;52745;49.794;18.258;2022-08-26T13:08:27;98457.13;;;31.67;35.19
65157;BME280;52745;49.794;18.258;2022-08-26T13:11:11;98455.56;;;31.73;38.13
65157;BME280;52745;49.794;18.258;2022-08-26T13:13:38;98446.50;;;31.73;36.91
65157;BME280;52745;49.794;18.258;2022-08-26T13:16:06;98442.53;;;31.70;33.48
65157;BME280;52745;49.794;18.258;2022-08-26T13:18:32;98442.97;;;31.90;33.33
65157;BME280;52745;49.794;18.258;2022-08-26T13:20:59;98436.25;;;31.77;34.74
65157;BME280;52745;49.794;18.258;2022-08-26T13:23:25;98437.41;;;31.69;33.85
65157;BME280;52745;49.794;18.258;2022-08-26T13:25:53;98438.22;;;31.73;34.82
65157;BME280;52745;49.794;18.258;2022-08-26T13:28:19;98440.34;;;31.28;32.64
65157;BME280;52745;49.794;18.258;2022-08-26T13:30:46;98445.88;;;31.28;33.04
65157;BME280;52745;49.794;18.258;2022-08-26T13:33:16;98424.72;;;31.46;35.03
65157;BME280;52745;49.794;18.258;2022-08-26T13:35:44;98423.16;;;31.52;36.70
65157;BME280;52745;49.794;18.258;2022-08-26T13:38:10;98417.28;;;31.58;35.80
65157;BME280;52745;49.794;18.258;2022-08-26T13:40:41;98424.66;;;31.39;36.82
65157;BME280;52745;49.794;18.258;2022-08-26T13:43:10;98424.59;;;31.25;37.00
65157;BME280;52745;49.794;18.258;2022-08-26T13:45:37;98426.59;;;31.31;37.14
65157;BME280;52745;49.794;18.258;2022-08-26T13:48:05;98421.88;;;31.35;35.46
65157;BME280;52745;49.794;18.258;2022-08-26T13:50:33;98412.72;;;31.17;36.84
65157;BME280;52745;49.794;18.258;2022-08-26T13:52:59;98415.88;;;31.19;38.03
65157;BME280;52745;49.794;18.258;2022-08-26T13:55:27;98403.31;;;31.25;36.72
65157;BME280;52745;49.794;18.258;2022-08-26T13:57:54;98407.25;;;31.24;36.93
65157;BME280;52745;49.794;18.258;2022-08-26T14:00:21;98407.25;;;31.24;35.10
65157;BME280;52745;49.794;18.258;2022-08-26T14:02:48;98406.81;;;31.19;35.72
65157;BME280;52745;49.794;18.258;2022-08-26T14:05:14;98415.03;;;31.08;36.02
65157;BME280;52745;49.794;18.258;2022-08-26T14:07:41;98411.06;;;31.02;36.73
65157;BME280;52745;49.794;18.258;2022-08-26T14:10:08;98415.72;;;30.87;36.32
65157;BME280;52745;49.794;18.258;2022-08-26T14:12:34;98417.91;;;30.70;35.87
65157;BME280;52745;49.794;18.258;2022-08-26T14:15:01;98416.34;;;30.73;36.13